Time;durP1;ratioP1;P1;durP2;ratioP2;P2;SDS_P1;SDS_P2;PMS_P1;PMS_P2;Temp;Humidity;BMP_temperature;BMP_pressure;BME280_temperature;BME280_humidity;BME280_pressure;Samples;Min_cycle;Max_cycle;Signal;HPM_P1;HPM_P2
2023/04/05 00:02:20;;;;;;;8.80;7.90;;;1.20;99.90;;;;;;5007061;28;20976;-66
2023/04/05 00:04:53;;;;;;;9.97;9.00;;;1.10;99.90;;;;;;5020279;28;20506;-66
2023/04/05 00:07:21;;;;;;;9.33;8.20;;;1.10;99.90;;;;;;5037588;28;20458;-67
2023/04/05 00:09:49;;;;;;;8.40;7.60;;;1.10;99.90;;;;;;5036117;28;20570;-66
2023/04/05 00:12:17;;;;;;;12.03;8.50;;;1.00;99.90;;;;;;5016945;28;20480;-66
2023/04/05 00:14:45;;;;;;;9.67;8.60;;;1.00;99.90;;;;;;5008356;28;20468;-66
2023/04/05 00:17:14;;;;;;;10.57;7.70;;;1.00;99.90;;;;;;5006907;28;20468;-66
2023/04/05 00:19:43;;;;;;;9.60;8.60;;;1.00;99.90;;;;;;5011547;28;22043;-65
2023/04/05 00:22:11;;;;;;;9.50;7.90;;;1.00;99.90;;;;;;5014638;28;20476;-65
2023/04/05 00:24:42;;;;;;;9.00;8.10;;;1.00;99.90;;;;;;5002474;28;20491;-65
2023/04/05 00:27:10;;;;;;;8.03;7.23;;;0.90;99.90;;;;;;5007604;28;20478;-67
2023/04/05 00:29:38;;;;;;;9.20;8.30;;;0.90;99.90;;;;;;5017995;28;20506;-66
2023/04/05 00:32:06;;;;;;;9.73;7.70;;;0.90;99.90;;;;;;5018673;28;20471;-65
2023/04/05 00:34:34;;;;;;;9.57;7.77;;;0.80;99.90;;;;;;5011705;28;21316;-65
2023/04/05 00:37:03;;;;;;;10.73;7.90;;;0.80;99.90;;;;;;5009762;28;20474;-65
2023/04/05 00:39:31;;;;;;;9.00;8.10;;;0.80;99.90;;;;;;5015545;28;20495;-66
2023/04/05 00:42:02;;;;;;;9.43;7.80;;;0.80;99.90;;;;;;5019419;28;20478;-65
2023/04/05 00:44:33;;;;;;;9.93;8.77;;;0.80;99.90;;;;;;5025651;28;20476;-65
2023/04/05 00:47:01;;;;;;;9.00;7.80;;;0.70;99.90;;;;;;5014381;28;21037;-66
2023/04/05 00:49:31;;;;;;;9.37;8.23;;;0.80;99.90;;;;;;5012434;28;20828;-65
2023/04/05 00:52:00;;;;;;;9.33;8.10;;;0.70;99.90;;;;;;5021323;28;20774;-66
2023/04/05 00:54:29;;;;;;;9.23;7.80;;;0.70;99.90;;;;;;5019243;28;20857;-65
2023/04/05 00:56:58;;;;;;;9.77;7.90;;;0.70;99.90;;;;;;5019530;28;20939;-65
2023/04/05 00:59:27;;;;;;;9.40;8.40;;;0.70;99.90;;;;;;5017988;28;20568;-65
2023/04/05 01:02:00;;;;;;;9.10;8.20;;;0.70;99.90;;;;;;5005909;28;20471;-65
2023/04/05 01:04:32;;;;;;;10.03;8.67;;;0.70;99.90;;;;;;5017130;28;20473;-66
2023/04/05 01:07:09;;;;;;;9.40;8.13;;;0.60;99.90;;;;;;5016840;28;20577;-65
2023/04/05 01:09:45;;;;;;;11.80;9.00;;;0.60;99.90;;;;;;5011849;28;20494;-65
2023/04/05 01:12:17;;;;;;;8.90;8.00;;;0.60;99.90;;;;;;5009772;28;20482;-65
2023/04/05 01:14:48;;;;;;;9.57;8.23;;;0.60;99.90;;;;;;5012120;28;20479;-64
2023/04/05 01:17:20;;;;;;;9.20;8.00;;;0.60;99.90;;;;;;5015019;28;21020;-64
2023/04/05 01:19:52;;;;;;;8.90;7.63;;;0.50;99.90;;;;;;5011063;28;20553;-69
2023/04/05 01:22:51;;;;;;;9.10;8.20;;;0.50;99.90;;;;;;5013590;28;20475;-65
2023/04/05 01:25:52;;;;;;;8.83;8.00;;;0.50;99.90;;;;;;5017473;28;20487;-64
2023/04/05 01:28:40;;;;;;;10.47;8.50;;;0.50;99.90;;;;;;5003499;28;20495;-65
2023/04/05 01:31:16;;;;;;;10.43;9.20;;;0.50;99.90;;;;;;5019414;28;20477;-64
2023/04/05 01:33:49;;;;;;;10.23;8.60;;;0.50;99.90;;;;;;5015172;28;20506;-65
2023/04/05 01:36:23;;;;;;;10.57;9.43;;;0.40;99.90;;;;;;5014098;28;20709;-64
2023/04/05 01:38:53;;;;;;;12.20;9.77;;;0.40;99.90;;;;;;5019801;28;20495;-65
2023/04/05 01:41:22;;;;;;;11.17;9.47;;;0.40;99.90;;;;;;5015579;28;20482;-65
2023/04/05 01:43:50;;;;;;;9.67;8.67;;;0.40;99.90;;;;;;5015790;28;20482;-65
2023/04/05 01:46:19;;;;;;;10.27;8.70;;;0.30;99.90;;;;;;5018233;28;20483;-65
2023/04/05 01:48:47;;;;;;;12.63;8.63;;;0.30;99.90;;;;;;5010864;28;20536;-65
2023/04/05 01:51:15;;;;;;;10.23;9.10;;;0.30;99.90;;;;;;5017053;28;20471;-65
2023/04/05 01:53:44;;;;;;;11.50;8.63;;;0.30;99.90;;;;;;5022013;28;20597;-65
2023/04/05 01:56:12;;;;;;;9.47;8.53;;;0.30;99.90;;;;;;5016995;28;20475;-65
2023/04/05 01:58:40;;;;;;;9.93;8.60;;;0.30;99.90;;;;;;5010294;28;20518;-64
2023/04/05 02:01:08;;;;;;;10.13;9.03;;;0.20;99.90;;;;;;5012145;28;20482;-64
2023/04/05 02:03:37;;;;;;;9.37;8.43;;;0.20;99.90;;;;;;5017499;28;20475;-65
2023/04/05 02:06:06;;;;;;;11.93;8.83;;;0.20;99.90;;;;;;5024034;28;20585;-64
2023/04/05 02:08:34;;;;;;;10.07;9.03;;;0.20;99.90;;;;;;5021473;28;20853;-64
2023/04/05 02:11:02;;;;;;;9.77;8.83;;;0.20;99.90;;;;;;5022880;28;20501;-64
2023/04/05 02:13:30;;;;;;;8.67;7.87;;;0.20;99.90;;;;;;5015838;28;20471;-64
2023/04/05 02:15:57;;;;;;;10.90;9.23;;;0.20;99.90;;;;;;5005531;28;20509;-65
2023/04/05 02:18:28;;;;;;;11.63;9.50;;;0.20;99.90;;;;;;5032617;28;20499;-65
2023/04/05 02:21:03;;;;;;;10.80;8.63;;;0.20;99.90;;;;;;5018196;28;20478;-64
2023/04/05 02:23:32;;;;;;;10.83;8.90;;;0.20;99.90;;;;;;5013141;28;20558;-65
2023/04/05 02:26:00;;;;;;;9.20;8.10;;;0.20;99.90;;;;;;5010350;28;20862;-65
2023/04/05 02:28:29;;;;;;;10.20;9.10;;;0.10;99.90;;;;;;5015054;28;21256;-65
2023/04/05 02:30:56;;;;;;;11.90;10.27;;;0.10;99.90;;;;;;5011305;28;20557;-65
2023/04/05 02:33:24;;;;;;;11.50;9.10;;;0.10;99.90;;;;;;5016945;28;20482;-65
2023/04/05 02:35:53;;;;;;;10.80;9.50;;;0.10;99.90;;;;;;5010622;28;21018;-65
2023/04/05 02:38:22;;;;;;;9.83;8.93;;;0.00;99.90;;;;;;5011713;28;20830;-64
2023/04/05 02:40:50;;;;;;;10.57;9.47;;;0.00;99.90;;;;;;5018687;28;20475;-64
2023/04/05 02:43:18;;;;;;;11.77;8.90;;;0.00;99.90;;;;;;5020154;28;20478;-64
2023/04/05 02:45:46;;;;;;;11.53;9.03;;;0.00;99.90;;;;;;5009804;28;20800;-64
2023/04/05 02:48:14;;;;;;;11.03;9.33;;;0.00;99.90;;;;;;5016189;28;20505;-65
2023/04/05 02:50:46;;;;;;;11.17;9.30;;;0.00;99.90;;;;;;5017817;28;20471;-65
2023/04/05 02:53:14;;;;;;;10.70;9.10;;;0.00;99.90;;;;;;5017164;28;20482;-64
2023/04/05 02:55:44;;;;;;;11.83;9.60;;;0.00;99.90;;;;;;5017294;28;20475;-65
2023/04/05 02:58:13;;;;;;;12.70;9.87;;;-0.10;99.90;;;;;;5014003;28;20503;-65
2023/04/05 03:00:41;;;;;;;12.67;10.17;;;0.00;99.90;;;;;;5007218;28;20502;-64
2023/04/05 03:03:09;;;;;;;12.63;10.30;;;-0.10;99.90;;;;;;5017283;28;20497;-64
2023/04/05 03:05:37;;;;;;;14.17;10.33;;;-0.10;99.90;;;;;;5014390;28;20904;-64
2023/04/05 03:08:05;;;;;;;12.00;10.23;;;-0.10;99.90;;;;;;5022068;28;20487;-65
2023/04/05 03:10:34;;;;;;;15.17;11.33;;;-0.10;99.90;;;;;;5016589;28;20491;-65
2023/04/05 03:13:04;;;;;;;11.70;9.60;;;-0.10;99.90;;;;;;5016810;28;20479;-65
2023/04/05 03:15:32;;;;;;;12.67;10.63;;;-0.20;99.90;;;;;;5015098;28;20478;-64
2023/04/05 03:18:00;;;;;;;11.87;10.20;;;-0.20;99.90;;;;;;5014674;28;20483;-64
2023/04/05 03:20:28;;;;;;;12.23;10.73;;;-0.20;99.90;;;;;;5009995;28;21041;-64
2023/04/05 03:22:56;;;;;;;11.50;10.07;;;-0.20;99.90;;;;;;5012886;28;20474;-65
2023/04/05 03:25:25;;;;;;;13.83;10.23;;;-0.20;99.90;;;;;;5017742;28;20479;-65
2023/04/05 03:27:54;;;;;;;13.43;10.53;;;-0.20;99.90;;;;;;5007283;28;20487;-64
2023/04/05 03:30:23;;;;;;;13.83;10.60;;;-0.30;99.90;;;;;;5016797;28;20499;-64
2023/04/05 03:32:51;;;;;;;12.10;10.37;;;-0.30;99.90;;;;;;5018403;28;20475;-64
2023/04/05 03:35:19;;;;;;;12.00;10.70;;;-0.30;99.90;;;;;;5016903;28;20547;-65
2023/04/05 03:37:47;;;;;;;12.80;10.90;;;-0.30;99.90;;;;;;5029672;28;20637;-65
2023/04/05 03:40:15;;;;;;;12.93;10.17;;;-0.30;99.90;;;;;;5020824;28;20498;-64
2023/04/05 03:42:44;;;;;;;12.00;10.60;;;-0.30;99.90;;;;;;5022485;28;20483;-65
2023/04/05 03:45:13;;;;;;;12.00;10.30;;;-0.30;99.90;;;;;;5010959;28;20474;-65
2023/04/05 03:47:42;;;;;;;12.73;10.40;;;-0.30;99.90;;;;;;5014681;28;20495;-65
2023/04/05 03:50:11;;;;;;;12.33;10.00;;;-0.30;99.90;;;;;;5012832;28;20499;-65
2023/04/05 03:52:39;;;;;;;12.93;10.57;;;-0.30;99.90;;;;;;5021102;28;20479;-65
2023/04/05 03:55:08;;;;;;;11.20;10.00;;;-0.30;99.90;;;;;;5020259;28;21000;-65
2023/04/05 03:57:38;;;;;;;11.77;9.87;;;-0.40;99.90;;;;;;5026018;28;20857;-64
2023/04/05 04:00:13;;;;;;;12.50;10.50;;;-0.40;99.90;;;;;;5016112;28;20495;-64
2023/04/05 04:02:44;;;;;;;13.37;10.70;;;-0.40;99.90;;;;;;5021398;28;20542;-65
2023/04/05 04:05:13;;;;;;;12.73;10.60;;;-0.40;99.90;;;;;;5026761;28;20562;-64
2023/04/05 04:07:41;;;;;;;15.23;11.13;;;-0.40;99.90;;;;;;5017953;28;20503;-65
2023/04/05 04:10:11;;;;;;;11.10;9.83;;;-0.40;99.90;;;;;;5013063;28;20495;-65
2023/04/05 04:12:39;;;;;;;13.97;10.90;;;-0.40;99.90;;;;;;5017384;28;20471;-65
2023/04/05 04:15:08;;;;;;;11.80;10.03;;;-0.40;99.90;;;;;;5008941;28;20471;-65
2023/04/05 04:17:37;;;;;;;14.57;10.57;;;-0.40;99.90;;;;;;5013308;28;20478;-65
2023/04/05 04:20:09;;;;;;;11.63;10.03;;;-0.40;99.90;;;;;;5015272;28;20503;-65
2023/04/05 04:22:39;;;;;;;11.20;10.10;;;-0.40;99.90;;;;;;5013069;28;20467;-65
2023/04/05 04:25:09;;;;;;;12.30;10.10;;;-0.40;99.90;;;;;;5019261;28;20481;-65
2023/04/05 04:27:39;;;;;;;13.83;11.07;;;-0.40;99.90;;;;;;5009682;28;20486;-65
2023/04/05 04:30:09;;;;;;;12.47;9.87;;;-0.50;99.90;;;;;;5024058;28;20487;-65
2023/04/05 04:32:50;;;;;;;11.07;9.90;;;-0.50;99.90;;;;;;5000225;28;20467;-66
2023/04/05 04:35:23;;;;;;;13.87;10.43;;;-0.50;99.90;;;;;;5021190;28;20475;-65
2023/04/05 04:37:54;;;;;;;11.83;10.33;;;-0.50;99.90;;;;;;5024138;28;20513;-65
2023/04/05 04:40:24;;;;;;;12.77;10.70;;;-0.50;99.90;;;;;;5022097;28;21031;-65
2023/04/05 04:42:57;;;;;;;11.13;9.87;;;-0.50;99.90;;;;;;5017595;28;20471;-66
2023/04/05 04:45:26;;;;;;;13.93;10.37;;;-0.50;99.90;;;;;;5007830;28;20495;-66
2023/04/05 04:47:54;;;;;;;12.80;11.13;;;-0.50;99.90;;;;;;5003431;28;20507;-66
2023/04/05 04:50:23;;;;;;;12.33;10.20;;;-0.50;99.90;;;;;;5012729;28;20541;-66
2023/04/05 04:52:51;;;;;;;14.57;10.73;;;-0.40;99.90;;;;;;5012730;28;20475;-65
2023/04/05 04:55:24;;;;;;;13.40;11.07;;;-0.40;99.90;;;;;;5013955;28;20485;-66
2023/04/05 04:57:54;;;;;;;12.40;10.43;;;-0.40;99.90;;;;;;5001541;28;20487;-66
2023/04/05 05:00:25;;;;;;;13.93;11.07;;;-0.40;99.90;;;;;;5006611;28;20491;-65
2023/04/05 05:02:53;;;;;;;11.60;10.40;;;-0.30;99.90;;;;;;5016334;28;20475;-65
2023/04/05 05:05:22;;;;;;;12.70;10.63;;;-0.30;99.90;;;;;;5030109;28;20558;-66
2023/04/05 05:07:51;;;;;;;12.97;11.57;;;-0.30;99.90;;;;;;5039044;28;20546;-66
2023/04/05 05:10:19;;;;;;;13.50;10.50;;;-0.20;99.90;;;;;;5034937;28;20491;-65
2023/04/05 05:12:48;;;;;;;11.63;10.40;;;-0.20;99.90;;;;;;4997163;28;20474;-65
2023/04/05 05:15:16;;;;;;;11.20;9.97;;;-0.10;99.90;;;;;;5003848;28;21110;-64
2023/04/05 05:17:44;;;;;;;12.67;10.20;;;-0.10;99.90;;;;;;5016788;28;20467;-65
2023/04/05 05:20:13;;;;;;;12.13;9.53;;;0.00;99.90;;;;;;5021419;28;20495;-65
2023/04/05 05:22:42;;;;;;;14.67;10.17;;;0.00;99.90;;;;;;5020180;28;21640;-65
2023/04/05 05:25:11;;;;;;;13.33;10.30;;;0.10;99.90;;;;;;5024561;28;20979;-65
2023/04/05 05:27:39;;;;;;;11.57;9.93;;;0.10;99.90;;;;;;5015829;28;20582;-66
2023/04/05 05:30:08;;;;;;;12.67;10.27;;;0.20;99.90;;;;;;5011132;28;20498;-66
2023/04/05 05:32:36;;;;;;;13.97;11.57;;;0.20;99.90;;;;;;5007164;28;20994;-65
2023/04/05 05:35:04;;;;;;;13.43;10.87;;;0.30;99.90;;;;;;5018089;28;20645;-65
2023/04/05 05:37:33;;;;;;;13.73;10.00;;;0.40;99.90;;;;;;5004146;28;21405;-65
2023/04/05 05:40:03;;;;;;;13.20;11.60;;;0.50;99.90;;;;;;4997880;28;20510;-65
2023/04/05 05:42:32;;;;;;;10.80;9.63;;;0.50;99.90;;;;;;5018916;28;20471;-65
2023/04/05 05:45:03;;;;;;;11.70;10.50;;;0.50;99.90;;;;;;5019329;28;20479;-65
2023/04/05 05:47:31;;;;;;;11.77;10.37;;;0.60;99.90;;;;;;5024294;28;20487;-65
2023/04/05 05:49:59;;;;;;;12.80;10.20;;;0.70;99.90;;;;;;5019128;28;20491;-65
2023/04/05 05:52:27;;;;;;;13.20;10.20;;;0.80;99.90;;;;;;5030779;28;20995;-65
2023/04/05 05:54:55;;;;;;;13.80;10.57;;;0.90;99.90;;;;;;5024110;28;20521;-65
2023/04/05 05:57:24;;;;;;;14.60;10.20;;;0.90;99.90;;;;;;5016955;28;20467;-64
2023/04/05 05:59:52;;;;;;;13.00;9.30;;;1.00;99.90;;;;;;5015173;28;20502;-64
2023/04/05 06:02:20;;;;;;;11.83;10.07;;;1.00;99.90;;;;;;5019257;28;20505;-65
2023/04/05 06:04:48;;;;;;;11.03;9.63;;;1.00;99.90;;;;;;5024663;28;20476;-64
2023/04/05 06:07:16;;;;;;;10.27;9.00;;;1.00;99.90;;;;;;5028735;28;20467;-64
2023/04/05 06:09:46;;;;;;;11.07;9.00;;;1.10;99.90;;;;;;5018555;28;20995;-64
2023/04/05 06:12:14;;;;;;;10.43;9.33;;;1.10;99.90;;;;;;5021054;28;20467;-64
2023/04/05 06:14:43;;;;;;;14.93;10.20;;;1.20;99.90;;;;;;5024826;28;20467;-66
2023/04/05 06:17:11;;;;;;;12.43;9.80;;;1.20;99.90;;;;;;5025934;28;20484;-64
2023/04/05 06:19:39;;;;;;;11.53;9.83;;;1.20;99.90;;;;;;5019347;28;20500;-64
2023/04/05 06:22:07;;;;;;;11.40;9.30;;;1.30;99.90;;;;;;5024478;28;20467;-64
2023/04/05 06:24:35;;;;;;;9.80;8.80;;;1.40;99.90;;;;;;5025548;28;20482;-65
2023/04/05 06:27:03;;;;;;;11.67;9.00;;;1.50;99.90;;;;;;5020401;28;20521;-64
2023/04/05 06:29:34;;;;;;;13.93;8.40;;;1.60;99.90;;;;;;5024603;28;20491;-64
2023/04/05 06:32:04;;;;;;;14.17;8.80;;;1.70;99.90;;;;;;5022692;28;20667;-63
2023/04/05 06:34:32;;;;;;;11.47;8.63;;;1.80;99.90;;;;;;5026030;28;21022;-64
2023/04/05 06:37:00;;;;;;;9.43;7.23;;;2.00;99.90;;;;;;5022569;28;20473;-64
2023/04/05 06:39:28;;;;;;;9.60;7.10;;;2.10;99.90;;;;;;5024279;28;21000;-63
2023/04/05 06:41:56;;;;;;;8.77;7.33;;;2.20;99.90;;;;;;5022267;28;20471;-63
2023/04/05 06:44:24;;;;;;;9.50;7.50;;;2.30;99.90;;;;;;5025969;28;20468;-64
2023/04/05 06:46:52;;;;;;;12.87;7.00;;;2.40;99.90;;;;;;5020278;28;20482;-62
2023/04/05 06:49:22;;;;;;;11.87;6.80;;;2.50;99.90;;;;;;5026012;28;20884;-63
2023/04/05 06:51:50;;;;;;;7.93;5.70;;;2.60;99.90;;;;;;5020176;28;20830;-64
2023/04/05 06:54:20;;;;;;;7.43;6.63;;;2.80;99.90;;;;;;5028124;28;20908;-65
2023/04/05 06:56:47;;;;;;;8.73;6.00;;;2.90;99.90;;;;;;5021499;28;20850;-64
2023/04/05 06:59:15;;;;;;;9.70;6.50;;;3.00;99.90;;;;;;5020378;28;20498;-64
2023/04/05 07:01:43;;;;;;;11.83;5.67;;;3.10;99.90;;;;;;5022563;28;20499;-64
2023/04/05 07:04:12;;;;;;;12.03;6.93;;;3.20;99.90;;;;;;5024952;28;20479;-64
2023/04/05 07:06:42;;;;;;;8.33;5.40;;;3.40;99.90;;;;;;5022467;28;20559;-64
2023/04/05 07:09:09;;;;;;;7.10;5.73;;;3.50;99.90;;;;;;5029982;28;20992;-64
2023/04/05 07:11:38;;;;;;;7.00;5.37;;;3.60;99.90;;;;;;5020114;28;20463;-64
2023/04/05 07:14:06;;;;;;;8.73;5.63;;;3.70;99.90;;;;;;5024949;28;20987;-64
2023/04/05 07:16:34;;;;;;;9.63;5.50;;;3.80;99.90;;;;;;5025517;28;20468;-64
2023/04/05 07:19:04;;;;;;;6.00;5.40;;;3.90;99.90;;;;;;5021756;28;20478;-65
2023/04/05 07:21:32;;;;;;;6.60;4.90;;;4.00;99.90;;;;;;5028267;28;20479;-64
2023/04/05 07:24:02;;;;;;;5.80;5.20;;;4.10;99.90;;;;;;5030402;28;20839;-66
2023/04/05 07:26:33;;;;;;;6.60;6.00;;;4.20;99.90;;;;;;5022589;28;20478;-64
2023/04/05 07:29:01;;;;;;;7.50;5.80;;;4.20;99.90;;;;;;5029557;28;20483;-65
2023/04/05 07:31:30;;;;;;;7.23;6.10;;;4.20;99.90;;;;;;5025749;28;20475;-65
2023/04/05 07:34:00;;;;;;;8.80;6.00;;;4.30;99.90;;;;;;5028586;28;20478;-65
2023/04/05 07:36:29;;;;;;;8.23;6.60;;;4.30;99.90;;;;;;5027864;28;20578;-64
2023/04/05 07:38:57;;;;;;;8.87;6.40;;;4.40;99.90;;;;;;5028416;28;20482;-64
2023/04/05 07:41:30;;;;;;;9.07;5.30;;;4.50;99.90;;;;;;5023433;28;20517;-65
2023/04/05 07:43:58;;;;;;;6.37;5.67;;;4.50;99.90;;;;;;5024217;28;20471;-65
2023/04/05 07:46:27;;;;;;;5.87;5.33;;;4.60;99.90;;;;;;5026221;28;20472;-64
2023/04/05 07:48:55;;;;;;;7.83;5.60;;;4.60;99.90;;;;;;5026733;28;20497;-65
2023/04/05 07:51:23;;;;;;;6.03;5.43;;;4.70;99.90;;;;;;5026637;28;20467;-66
2023/04/05 07:53:51;;;;;;;7.13;4.90;;;4.70;99.90;;;;;;5024841;28;20854;-65
2023/04/05 07:56:19;;;;;;;6.07;5.00;;;4.80;99.90;;;;;;5026588;28;20467;-65
2023/04/05 07:58:50;;;;;;;6.97;5.40;;;4.90;99.90;;;;;;5023830;28;20494;-66
2023/04/05 08:01:18;;;;;;;5.87;4.77;;;4.90;99.90;;;;;;5027829;28;20474;-66
2023/04/05 08:03:46;;;;;;;6.70;4.63;;;5.00;99.90;;;;;;5027973;28;21210;-66
2023/04/05 08:06:16;;;;;;;5.03;4.53;;;5.10;99.90;;;;;;5026402;28;20475;-66
2023/04/05 08:08:44;;;;;;;7.57;5.13;;;5.20;99.90;;;;;;5025532;28;20489;-66
2023/04/05 08:11:13;;;;;;;6.53;4.40;;;5.30;99.90;;;;;;5025738;28;20498;-65
2023/04/05 08:13:41;;;;;;;4.93;3.97;;;5.30;99.90;;;;;;5027264;28;20468;-66
2023/04/05 08:16:11;;;;;;;4.30;3.90;;;5.30;99.90;;;;;;5025239;28;20470;-66
2023/04/05 08:18:39;;;;;;;5.70;4.20;;;5.40;99.90;;;;;;5026119;28;21083;-66
2023/04/05 08:21:07;;;;;;;6.73;4.00;;;5.40;99.90;;;;;;5029684;28;20513;-66
2023/04/05 08:23:35;;;;;;;9.80;5.23;;;5.40;99.90;;;;;;5026671;28;20475;-66
2023/04/05 08:26:03;;;;;;;4.23;3.63;;;5.40;99.90;;;;;;5028692;28;20471;-66
2023/04/05 08:28:31;;;;;;;5.10;3.70;;;5.60;99.90;;;;;;5019111;28;20487;-67
2023/04/05 08:30:59;;;;;;;5.30;3.50;;;5.60;99.90;;;;;;5026030;28;20495;-66
2023/04/05 08:33:29;;;;;;;4.53;3.50;;;5.70;99.90;;;;;;5027152;28;20476;-66
2023/04/05 08:35:58;;;;;;;4.37;3.70;;;5.70;99.90;;;;;;5026835;28;20471;-66
2023/04/05 08:38:26;;;;;;;4.27;3.27;;;5.80;99.90;;;;;;5019590;28;20519;-65
2023/04/05 08:40:54;;;;;;;6.00;3.67;;;5.90;99.90;;;;;;5023443;28;20853;-65
2023/04/05 08:43:28;;;;;;;5.03;3.70;;;6.00;99.90;;;;;;5024806;28;20999;-66
2023/04/05 08:45:59;;;;;;;5.23;4.40;;;6.20;99.90;;;;;;5021716;28;20999;-65
2023/04/05 08:48:34;;;;;;;5.17;4.20;;;6.20;99.90;;;;;;5026573;28;21091;-66
2023/04/05 08:51:04;;;;;;;7.10;4.43;;;6.30;99.90;;;;;;5026185;28;20487;-65
2023/04/05 08:53:33;;;;;;;6.73;4.33;;;6.30;99.90;;;;;;5026682;28;20482;-66
2023/04/05 08:56:03;;;;;;;4.47;3.77;;;6.40;99.90;;;;;;5023162;28;20508;-65
2023/04/05 08:58:35;;;;;;;5.40;4.40;;;6.40;99.90;;;;;;5025690;28;20475;-66
2023/04/05 09:01:05;;;;;;;6.53;4.70;;;6.50;99.90;;;;;;5021584;28;20480;-64
2023/04/05 09:03:37;;;;;;;4.93;4.43;;;6.50;99.90;;;;;;5026114;28;20510;-65
2023/04/05 09:06:09;;;;;;;6.33;4.50;;;6.60;99.90;;;;;;5023381;28;20494;-65
2023/04/05 09:08:38;;;;;;;5.17;4.43;;;6.70;99.90;;;;;;5025981;28;20475;-66
2023/04/05 09:11:06;;;;;;;4.90;4.40;;;6.70;99.90;;;;;;5019497;28;20500;-66
2023/04/05 09:13:34;;;;;;;6.03;4.43;;;6.80;99.90;;;;;;5025508;28;20849;-64
2023/04/05 09:16:02;;;;;;;4.87;4.10;;;6.90;99.90;;;;;;5023036;28;20894;-66
2023/04/05 09:18:30;;;;;;;5.90;4.10;;;7.00;99.90;;;;;;5024903;28;20491;-66
2023/04/05 09:21:04;;;;;;;4.60;4.20;;;7.00;99.90;;;;;;5024755;28;21024;-66
2023/04/05 09:23:34;;;;;;;5.40;4.20;;;7.10;99.90;;;;;;5023679;28;20806;-66
2023/04/05 09:26:17;;;;;;;6.70;3.93;;;7.10;99.90;;;;;;5021173;28;20548;-67
2023/04/05 09:28:45;;;;;;;5.13;4.07;;;7.10;99.90;;;;;;5031954;28;20483;-65
2023/04/05 09:31:31;;;;;;;6.03;4.60;;;7.10;99.90;;;;;;5022930;28;20491;-67
2023/04/05 09:34:03;;;;;;;6.30;4.40;;;7.20;99.90;;;;;;5020792;28;20475;-66
2023/04/05 09:36:34;;;;;;;4.43;4.03;;;7.20;99.90;;;;;;5020157;28;20478;-66
2023/04/05 09:39:06;;;;;;;5.37;4.77;;;7.30;99.90;;;;;;5021908;28;20491;-64
2023/04/05 09:41:35;;;;;;;4.40;3.57;;;7.40;99.90;;;;;;5023161;28;20489;-66
2023/04/05 09:44:03;;;;;;;4.43;4.00;;;7.40;99.90;;;;;;5023016;28;20980;-66
2023/04/05 09:46:33;;;;;;;5.30;4.80;;;7.50;99.90;;;;;;5028812;28;20529;-63
2023/04/05 09:49:05;;;;;;;5.67;4.50;;;7.50;99.90;;;;;;5025733;28;20539;-64
2023/04/05 09:51:36;;;;;;;4.87;4.40;;;7.60;99.90;;;;;;5022783;28;20863;-65
2023/04/05 09:54:06;;;;;;;4.70;4.23;;;7.70;99.90;;;;;;5024282;28;20467;-66
2023/04/05 09:56:35;;;;;;;5.50;4.20;;;7.70;99.90;;;;;;5015847;28;20471;-66
2023/04/05 09:59:09;;;;;;;4.93;4.43;;;7.70;99.90;;;;;;5018754;28;20499;-64
2023/04/05 10:01:38;;;;;;;4.30;3.90;;;7.70;99.90;;;;;;5022432;28;21005;-64
2023/04/05 10:04:08;;;;;;;8.27;4.83;;;7.90;99.90;;;;;;5027361;28;20479;-66
2023/04/05 10:06:39;;;;;;;5.77;4.90;;;7.90;99.90;;;;;;5026899;28;20819;-64
2023/04/05 10:09:09;;;;;;;5.00;4.57;;;7.90;99.90;;;;;;5023405;28;20920;-64
2023/04/05 10:11:39;;;;;;;4.60;4.20;;;7.90;99.90;;;;;;5023641;28;20722;-64
2023/04/05 10:14:09;;;;;;;5.60;4.17;;;8.10;99.90;;;;;;5026264;28;20855;-64
2023/04/05 10:16:41;;;;;;;4.73;4.27;;;8.20;99.90;;;;;;5023242;28;20479;-65
2023/04/05 10:19:18;;;;;;;6.70;5.17;;;8.30;99.90;;;;;;5023965;28;20491;-64
2023/04/05 10:21:49;;;;;;;5.93;4.90;;;8.50;99.90;;;;;;5024536;28;20657;-65
2023/04/05 10:24:29;;;;;;;5.17;4.40;;;8.70;99.90;;;;;;5034848;28;20467;-64
2023/04/05 10:27:05;;;;;;;4.93;4.43;;;8.90;99.90;;;;;;5046119;28;20466;-64
2023/04/05 10:29:40;;;;;;;6.67;4.67;;;9.10;99.90;;;;;;5043465;28;20493;-64
2023/04/05 10:32:14;;;;;;;4.77;4.37;;;9.20;99.90;;;;;;5037966;28;20831;-65
2023/04/05 10:34:48;;;;;;;5.40;4.63;;;9.40;99.90;;;;;;5024041;28;20905;-65
2023/04/05 10:37:28;;;;;;;4.47;4.07;;;9.50;99.90;;;;;;5020300;28;20517;-64
2023/04/05 10:40:02;;;;;;;7.07;4.60;;;9.60;99.90;;;;;;5020770;28;20795;-66
2023/04/05 10:42:38;;;;;;;5.67;5.27;;;9.80;93.30;;;;;;5020278;28;20524;-64
2023/04/05 10:45:10;;;;;;;5.20;4.60;;;9.80;97.90;;;;;;5027860;28;20582;-64
2023/04/05 10:47:44;;;;;;;5.20;4.50;;;9.80;91.00;;;;;;5021226;28;21122;-65
2023/04/05 10:50:20;;;;;;;6.03;4.73;;;9.80;99.90;;;;;;5023279;28;20495;-65
2023/04/05 10:52:50;;;;;;;5.30;4.80;;;9.80;99.90;;;;;;5024824;28;20585;-65
2023/04/05 10:55:18;;;;;;;6.97;5.50;;;9.80;99.90;;;;;;5026221;28;20871;-64
2023/04/05 10:57:48;;;;;;;5.23;4.77;;;9.80;99.90;;;;;;5026005;28;20598;-65
2023/04/05 11:00:18;;;;;;;5.50;4.60;;;9.80;99.90;;;;;;5022071;28;20488;-66
2023/04/05 11:02:53;;;;;;;5.80;5.00;;;9.80;99.90;;;;;;5022646;28;20919;-65
2023/04/05 11:05:35;;;;;;;5.27;4.33;;;9.60;99.90;;;;;;5020766;28;20467;-65
2023/04/05 11:08:06;;;;;;;5.57;5.07;;;9.60;99.90;;;;;;5027873;28;20489;-66
2023/04/05 11:10:37;;;;;;;4.30;3.90;;;9.60;99.90;;;;;;5024402;28;21004;-67
2023/04/05 11:13:07;;;;;;;6.80;5.70;;;9.60;99.90;;;;;;5021563;28;20467;-65
2023/04/05 11:15:36;;;;;;;6.00;5.07;;;9.50;99.90;;;;;;5024071;28;20518;-66
2023/04/05 11:18:06;;;;;;;4.77;4.13;;;9.50;99.90;;;;;;5004704;28;20506;-66
2023/04/05 11:20:46;;;;;;;4.40;4.00;;;9.50;99.90;;;;;;5018842;28;20482;-66
2023/04/05 11:23:17;;;;;;;5.43;4.17;;;9.40;99.90;;;;;;5013231;28;21439;-66
2023/04/05 11:25:50;;;;;;;6.80;4.67;;;9.40;99.90;;;;;;5023476;28;20563;-65
2023/04/05 11:28:23;;;;;;;5.73;4.20;;;9.40;99.90;;;;;;5010178;28;21382;-66
2023/04/05 11:30:55;;;;;;;4.50;4.10;;;9.40;99.90;;;;;;5018640;28;20500;-67
2023/04/05 11:34:08;;;;;;;5.60;4.37;;;9.40;99.90;;;;;;5024618;28;20815;-66
2023/04/05 11:36:40;;;;;;;5.67;4.10;;;9.40;99.90;;;;;;5025569;28;20661;-66
2023/04/05 11:39:26;;;;;;;4.80;4.40;;;9.50;99.90;;;;;;5020333;28;20854;-66
2023/04/05 11:41:58;;;;;;;4.77;4.27;;;9.60;99.90;;;;;;5020071;28;20471;-66
2023/04/05 11:44:27;;;;;;;4.53;4.13;;;9.70;99.90;;;;;;5024355;28;20471;-66
2023/04/05 11:46:55;;;;;;;4.77;4.00;;;10.00;99.90;;;;;;5022530;28;21109;-66
2023/04/05 11:49:24;;;;;;;4.90;4.43;;;10.30;99.90;;;;;;5025444;28;20514;-66
2023/04/05 11:51:53;;;;;;;4.63;4.13;;;10.60;99.90;;;;;;5021175;28;20494;-66
2023/04/05 11:54:33;;;;;;;4.70;4.30;;;10.80;99.90;;;;;;5024924;28;20475;-65
2023/04/05 11:57:02;;;;;;;4.67;4.20;;;11.00;95.60;;;;;;5014320;28;20476;-66
2023/04/05 11:59:31;;;;;;;4.50;4.10;;;11.10;92.90;;;;;;5011061;28;20513;-66
2023/04/05 12:02:01;;;;;;;4.63;4.30;;;11.20;85.10;;;;;;5022687;28;20540;-66
2023/04/05 12:04:29;;;;;;;4.33;3.50;;;11.30;79.50;;;;;;5015884;28;20479;-68
2023/04/05 12:07:14;;;;;;;4.47;3.40;;;11.20;76.50;;;;;;5023161;28;20474;-66
2023/04/05 12:10:17;;;;;;;4.83;3.60;;;11.10;72.30;;;;;;5022317;28;20604;-66
2023/04/05 12:12:46;;;;;;;4.27;3.37;;;11.00;72.40;;;;;;4930331;28;20491;-66
2023/04/05 12:15:17;;;;;;;4.60;3.60;;;10.80;83.30;;;;;;5009457;28;20471;-66
2023/04/05 12:17:48;;;;;;;3.60;3.30;;;10.70;88.00;;;;;;5018932;28;20470;-66
2023/04/05 12:20:19;;;;;;;5.27;3.80;;;10.50;91.00;;;;;;5023764;28;20509;-66
2023/04/05 12:22:48;;;;;;;3.80;3.13;;;10.40;88.40;;;;;;5019672;28;20908;-66
2023/04/05 12:25:18;;;;;;;3.60;3.20;;;10.30;96.00;;;;;;5018063;28;20966;-66
2023/04/05 12:27:47;;;;;;;3.93;3.40;;;10.20;98.40;;;;;;5025034;28;20467;-66
2023/04/05 12:30:16;;;;;;;4.20;3.80;;;10.10;99.90;;;;;;5022902;28;20502;-66
2023/04/05 12:32:46;;;;;;;4.60;4.10;;;10.10;99.90;;;;;;5011334;28;20487;-66
2023/04/05 12:35:17;;;;;;;5.00;4.23;;;10.00;99.90;;;;;;5018851;28;20472;-66
2023/04/05 12:37:45;;;;;;;4.90;4.30;;;10.00;98.90;;;;;;5018493;28;20586;-66
2023/04/05 12:40:14;;;;;;;5.80;4.17;;;10.00;96.50;;;;;;5027644;28;20495;-66
2023/04/05 12:42:45;;;;;;;6.17;4.00;;;9.90;99.90;;;;;;5028326;28;20476;-66
2023/04/05 12:45:14;;;;;;;5.03;4.10;;;9.90;99.40;;;;;;5015154;28;20475;-66
2023/04/05 12:47:49;;;;;;;7.23;4.50;;;9.90;98.00;;;;;;5017486;28;20478;-65
2023/04/05 12:50:19;;;;;;;4.73;4.23;;;9.90;99.90;;;;;;5023672;28;20495;-65
2023/04/05 12:52:57;;;;;;;5.80;4.60;;;9.80;99.90;;;;;;5021887;28;20488;-66
2023/04/05 12:55:26;;;;;;;8.00;4.40;;;9.80;99.90;;;;;;5024107;28;20474;-66
2023/04/05 12:57:59;;;;;;;5.03;4.53;;;9.80;99.90;;;;;;5022444;28;20833;-65
2023/04/05 13:00:29;;;;;;;4.43;4.03;;;9.90;99.90;;;;;;5031246;28;20940;-65
2023/04/05 13:02:59;;;;;;;4.80;4.40;;;10.10;99.90;;;;;;5014248;28;20474;-67
2023/04/05 13:05:29;;;;;;;4.70;4.30;;;10.40;99.90;;;;;;5013342;28;21063;-66